Pinos Puente, Spain
Current Conditions -  °F | °C
As of 3:00 PM on Thursday 30 Oct 2014 (Local Time) from LEGR Reporting Station
Few Clouds Few Clouds  
Wind Chill: 82°   Ceiling: Unl
Heat Index: 82°   Visibility: 6mi
Dew Point: 41°   Wind: 2mph
Humidity: 23%   Direction: NA
Pressure: 30.12"   Gusts: NA
Location:  37.25°N, 3.75°W
Report Text: LEGR 301400Z VRB02KT 9999 FEW060 28/05 Q1020
Loading
Personal Weather Stations






























Interactive Weather Map
Tropical Storm Tracking
New forecast layout! Learn more

10-Day Weather Forecast

Advertisements
Track Severe Weather on mobile